Time;durP1;ratioP1;P1;durP2;ratioP2;P2;SDS_P1;SDS_P2;PMS_P1;PMS_P2;Temp;Humidity;BMP_temperature;BMP_pressure;BME280_temperature;BME280_humidity;BME280_pressure;Samples;Min_cycle;Max_cycle;Signal;HPM_P1;HPM_P2
2022/05/18 00:02:42;;;;;;;10.70;3.40;;;;;;;9.79;65.90;99887.31;105059;1284;22554;-82
2022/05/18 00:05:19;;;;;;;10.90;3.60;;;;;;;9.79;65.76;99893.14;105411;1282;24227;-85
2022/05/18 00:08:14;;;;;;;;;;;;;;;;;;;;;
2022/05/18 00:11:15;;;;;;;10.40;3.60;;;;;;;9.74;65.60;99896.45;105739;1277;24622;-79
2022/05/18 00:14:18;;;;;;;10.20;3.80;;;;;;;9.66;65.62;99901.70;105635;1278;24384;-79
2022/05/18 00:20:42;;;;;;;8.20;2.70;;;;;;;9.55;65.63;99909.98;105740;1277;22585;-80
2022/05/18 00:23:41;;;;;;;7.80;2.50;;;;;;;9.51;65.55;99911.93;106023;1273;24759;-86
2022/05/18 00:26:50;;;;;;;;;;;;;;;;;;;;;
2022/05/18 00:29:50;;;;;;;8.70;2.60;;;;;;;9.45;65.46;99912.79;106174;1273;22692;-84
2022/05/18 00:32:29;;;;;;;7.80;2.40;;;;;;;9.40;65.36;99917.52;106146;1273;25309;-81
2022/05/18 00:35:25;;;;;;;7.30;2.20;;;;;;;9.33;65.34;99921.44;106137;1273;25345;-79
2022/05/18 00:38:42;;;;;;;10.40;2.30;;;;;;;9.23;65.27;99924.83;106207;1273;22535;-79
2022/05/18 00:41:43;;;;;;;;;;;;;;;;;;;;;
2022/05/18 00:44:16;;;;;;;8.60;2.40;;;;;;;9.07;65.28;99937.41;105941;1273;24270;-79
2022/05/18 00:47:20;;;;;;;9.70;2.40;;;;;;;8.98;65.16;99937.67;105920;1273;22678;-83
2022/05/18 00:50:34;;;;;;;6.70;2.10;;;;;;;8.88;65.28;99942.98;106252;1273;22553;-86
2022/05/18 00:54:17;;;;;;;;;;;;;;;;;;;;;
2022/05/18 00:57:21;;;;;;;9.40;2.50;;;;;;;8.81;65.12;99946.54;105027;1284;22563;-78
2022/05/18 01:00:58;;;;;;;8.10;1.70;;;;;;;8.78;64.96;99958.38;104927;1285;22701;-78
2022/05/18 01:04:07;;;;;;;7.70;1.70;;;;;;;8.74;65.15;99959.65;105039;1284;22543;-76
2022/05/18 01:08:08;;;;;;;6.70;1.50;;;;;;;8.64;65.03;99963.16;104883;1284;23959;-77
2022/05/18 01:11:21;;;;;;;6.70;1.20;;;;;;;8.52;65.16;99968.21;104996;1284;22576;-78
2022/05/18 01:13:49;;;;;;;5.20;1.40;;;;;;;8.43;64.96;99972.39;104851;1285;22538;-77
2022/05/18 01:17:11;;;;;;;;;;;;;;;;;;;;;
2022/05/18 01:20:13;;;;;;;;;;;;;;;;;;;;;
2022/05/18 01:23:36;;;;;;;6.30;1.60;;;;;;;8.15;64.88;99980.44;104946;1284;22647;-78
2022/05/18 01:27:10;;;;;;;;;;;;;;;;;;;;;
2022/05/18 01:33:42;;;;;;;7.70;1.60;;;;;;;7.94;64.78;99988.01;104970;1281;25336;-77
2022/05/18 01:37:02;;;;;;;;;;;;;;;;;;;;;
2022/05/18 01:40:10;;;;;;;6.20;1.30;;;;;;;7.89;64.92;99986.09;104883;1285;25439;-79
2022/05/18 01:43:04;;;;;;;;;;;;;;;;;;;;;
2022/05/18 01:46:43;;;;;;;10.50;1.50;;;;;;;7.82;64.78;99980.38;104763;1287;24232;-79
2022/05/18 01:53:42;;;;;;;;;;;;;;;;;;;;;
2022/05/18 01:57:38;;;;;;;7.10;1.50;;;;;;;7.59;64.97;99987.46;102899;1306;22600;-84
2022/05/18 02:00:18;;;;;;;;;;;;;;;;;;;;;
2022/05/18 02:03:06;;;;;;;7.30;1.50;;;;;;;7.40;64.87;99996.45;103199;1306;22707;-83
2022/05/18 02:10:02;;;;;;;;;;;;;;;;;;;;;
2022/05/18 02:13:34;;;;;;;;;;;;;;;;;;;;;
2022/05/18 02:20:54;;;;;;;;;;;;;;;;;;;;;
2022/05/18 02:24:24;;;;;;;4.20;1.00;;;;;;;7.23;64.64;100013.16;102842;1312;22664;-82
2022/05/18 02:27:18;;;;;;;10.30;1.30;;;;;;;7.11;64.50;100011.38;102558;1314;24132;-78
2022/05/18 02:34:34;;;;;;;;;;;;;;;;;;;;;
2022/05/18 02:37:26;;;;;;;7.20;1.50;;;;;;;6.77;64.82;100021.11;103392;1306;24571;-83
2022/05/18 02:40:20;;;;;;;6.70;1.50;;;;;;;6.72;64.97;100019.73;103238;1306;25637;-79
2022/05/18 02:43:45;;;;;;;5.80;1.40;;;;;;;6.67;65.09;100025.58;103274;1306;22719;-80
2022/05/18 02:47:57;;;;;;;4.40;1.10;;;;;;;6.68;65.01;100027.86;102834;1311;25404;-77
2022/05/18 02:51:11;;;;;;;5.80;1.00;;;;;;;6.68;64.98;100036.36;102743;1312;22564;-82
2022/05/18 02:57:32;;;;;;;;;;;;;;;;;;;;;
2022/05/18 03:01:03;;;;;;;6.40;1.10;;;;;;;6.56;65.18;100034.38;103683;1296;22736;-79
2022/05/18 03:04:24;;;;;;;6.70;1.30;;;;;;;6.52;65.24;100040.17;104222;1297;22655;-81
2022/05/18 03:07:45;;;;;;;5.10;1.10;;;;;;;6.52;65.21;100041.45;104057;1297;24342;-81
2022/05/18 03:11:02;;;;;;;;;;;;;;;;;;;;;
2022/05/18 03:14:24;;;;;;;;;;;;;;;;;;;;;
2022/05/18 03:17:57;;;;;;;7.20;1.80;;;;;;;6.55;65.34;100051.75;104271;1294;22821;-80
2022/05/18 03:24:43;;;;;;;;;;;;;;;;;;;;;
2022/05/18 03:28:28;;;;;;;6.20;1.60;;;;;;;6.70;65.42;100062.09;104747;1290;24240;-83
2022/05/18 03:31:11;;;;;;;5.80;2.00;;;;;;;6.82;65.51;100066.40;104376;1294;22643;-85
2022/05/18 03:35:10;;;;;;;6.40;1.80;;;;;;;6.92;65.49;100067.91;104771;1285;22730;-83
2022/05/18 03:37:43;;;;;;;6.40;1.70;;;;;;;7.00;65.37;100072.73;105332;1284;24531;-84
2022/05/18 03:41:14;;;;;;;5.80;2.00;;;;;;;7.03;65.20;100075.46;105194;1284;24227;-80
2022/05/18 03:44:53;;;;;;;9.80;2.40;;;;;;;7.10;65.64;100078.89;105425;1284;22777;-79
2022/05/18 03:48:16;;;;;;;7.80;2.30;;;;;;;7.14;65.66;100081.36;105237;1284;25426;-78
2022/05/18 03:50:57;;;;;;;8.50;2.40;;;;;;;7.22;65.53;100092.70;105220;1284;25336;-79
2022/05/18 03:54:13;;;;;;;8.50;3.00;;;;;;;7.29;65.64;100094.91;105183;1281;22775;-82
2022/05/18 03:57:20;;;;;;;9.90;2.60;;;;;;;7.45;65.55;100097.09;105617;1279;25240;-77
2022/05/18 04:00:08;;;;;;;8.40;2.50;;;;;;;7.66;65.34;100100.02;105642;1279;25305;-80
2022/05/18 04:02:44;;;;;;;7.70;2.70;;;;;;;7.91;65.41;100101.63;105804;1279;22549;-79
2022/05/18 04:05:44;;;;;;;7.40;2.00;;;;;;;8.15;65.05;100102.48;105668;1280;22829;-84
2022/05/18 04:08:17;;;;;;;10.60;2.60;;;;;;;8.42;64.97;100099.48;106134;1274;22541;-82
2022/05/18 04:11:07;;;;;;;10.20;2.60;;;;;;;8.65;64.76;100099.98;105891;1274;25380;-78
2022/05/18 04:14:08;;;;;;;5.70;2.10;;;;;;;8.90;64.62;100101.27;106268;1274;25325;-82
2022/05/18 04:17:14;;;;;;;;;;;;;;;;;;;;;
2022/05/18 04:20:09;;;;;;;8.30;2.10;;;;;;;9.36;64.50;100101.67;106082;1274;24184;-81
2022/05/18 04:23:13;;;;;;;8.10;1.80;;;;;;;9.52;64.37;100098.16;105966;1274;22540;-85
2022/05/18 04:25:48;;;;;;;6.30;2.00;;;;;;;9.65;64.26;100100.52;106204;1274;25302;-81
2022/05/18 04:28:53;;;;;;;6.90;2.10;;;;;;;9.74;64.34;100101.50;105986;1274;25223;-80
2022/05/18 04:31:45;;;;;;;8.70;2.30;;;;;;;9.82;64.48;100105.16;106226;1274;22671;-86
2022/05/18 04:34:42;;;;;;;;;;;;;;;;;;;;;
2022/05/18 04:37:32;;;;;;;7.30;2.20;;;;;;;9.96;64.58;100108.30;106045;1274;22537;-85
2022/05/18 04:40:21;;;;;;;9.00;2.50;;;;;;;10.09;64.43;100110.71;106223;1274;24241;-85
2022/05/18 04:43:08;;;;;;;8.80;2.20;;;;;;;10.22;64.58;100105.88;105924;1274;25356;-79
2022/05/18 04:45:56;;;;;;;;;;;;;;;;;;;;;
2022/05/18 04:48:31;;;;;;;8.40;2.50;;;;;;;10.51;64.52;100110.93;106008;1273;22541;-79
2022/05/18 04:51:33;;;;;;;9.80;2.20;;;;;;;10.62;64.56;100109.98;106013;1273;25300;-78
2022/05/18 04:54:04;;;;;;;7.90;2.30;;;;;;;10.74;64.19;100112.11;106346;1273;24341;-80
2022/05/18 04:56:49;;;;;;;7.20;1.70;;;;;;;10.89;64.16;100113.25;105969;1275;22878;-81
2022/05/18 05:03:22;;;;;;;;;;;;;;;;;;;;;
2022/05/18 05:06:40;;;;;;;7.00;1.90;;;;;;;11.19;63.64;100128.14;106273;1273;22551;-80
2022/05/18 05:09:16;;;;;;;8.00;1.80;;;;;;;11.38;63.97;100131.45;106280;1272;22521;-80
2022/05/18 05:12:20;;;;;;;8.20;1.70;;;;;;;11.49;63.73;100131.70;105967;1273;24197;-83
2022/05/18 05:15:04;;;;;;;4.90;1.70;;;;;;;11.63;63.74;100124.61;105970;1272;24324;-83
2022/05/18 05:17:31;;;;;;;6.20;1.80;;;;;;;11.77;63.68;100127.35;106215;1271;22537;-83
2022/05/18 05:20:38;;;;;;;5.80;1.50;;;;;;;11.87;63.64;100124.45;106256;1273;26477;-83
2022/05/18 05:24:20;;;;;;;6.60;1.70;;;;;;;11.98;63.35;100126.98;106196;1273;23657;-89
2022/05/18 05:26:46;;;;;;;6.40;1.70;;;;;;;12.07;63.27;100128.77;106327;1273;26584;-78
2022/05/18 05:29:26;;;;;;;6.50;1.80;;;;;;;12.18;63.31;100125.74;106328;1273;22544;-84
2022/05/18 05:32:05;;;;;;;4.30;1.30;;;;;;;12.33;63.46;100127.70;105954;1273;23043;-84
2022/05/18 05:34:38;;;;;;;7.50;1.80;;;;;;;12.44;63.44;100123.45;106062;1276;25468;-82
2022/05/18 05:37:10;;;;;;;6.60;1.70;;;;;;;12.55;63.16;100125.06;106396;1273;22537;-85
2022/05/18 05:40:10;;;;;;;;;;;;;;;;;;;;;
2022/05/18 05:42:42;;;;;;;9.60;2.20;;;;;;;12.82;63.18;100130.28;105933;1274;22568;-84
2022/05/18 05:45:39;;;;;;;;;;;;;;;;;;;;;
2022/05/18 05:48:27;;;;;;;;;;;;;;;;;;;;;
2022/05/18 05:51:27;;;;;;;8.80;2.00;;;;;;;13.12;63.01;100125.32;106229;1273;22535;-80
2022/05/18 05:54:10;;;;;;;;;;;;;;;;;;;;;
2022/05/18 05:57:04;;;;;;;;;;;;;;;;;;;;;
2022/05/18 05:59:54;;;;;;;7.30;2.00;;;;;;;13.50;62.97;100117.41;106184;1273;25743;-79
2022/05/18 06:02:56;;;;;;;7.60;2.30;;;;;;;13.66;62.72;100119.77;106055;1273;24183;-85
2022/05/18 06:05:52;;;;;;;7.80;2.50;;;;;;;13.84;62.70;100120.00;106253;1273;23349;-80
2022/05/18 06:08:24;;;;;;;8.60;1.90;;;;;;;14.00;62.28;100122.08;106166;1273;24355;-77
2022/05/18 06:11:00;;;;;;;9.30;2.00;;;;;;;14.04;62.11;100124.98;106105;1273;22544;-84
2022/05/18 06:13:40;;;;;;;;;;;;;;;;;;;;;
2022/05/18 06:16:14;;;;;;;5.70;1.60;;;;;;;14.18;61.80;100124.58;106183;1274;22700;-85
2022/05/18 06:18:43;;;;;;;5.60;1.70;;;;;;;14.28;61.95;100126.70;106257;1272;22829;-78
2022/05/18 06:21:13;;;;;;;5.30;1.70;;;;;;;14.45;61.85;100127.73;105976;1273;25779;-77
2022/05/18 06:24:05;;;;;;;6.60;1.80;;;;;;;14.61;61.87;100130.72;106059;1273;22720;-80
2022/05/18 06:26:41;;;;;;;6.20;1.70;;;;;;;14.77;61.59;100135.08;105859;1277;25545;-78
2022/05/18 06:29:11;;;;;;;5.90;1.80;;;;;;;14.90;61.54;100137.77;105631;1279;22579;-85
2022/05/18 06:31:59;;;;;;;8.30;1.80;;;;;;;15.01;61.44;100136.05;105782;1278;24980;-78
2022/05/18 06:34:28;;;;;;;8.20;1.90;;;;;;;15.08;60.70;100141.26;105744;1279;22567;-79
2022/05/18 06:37:05;;;;;;;7.70;1.90;;;;;;;15.08;60.92;100146.68;105767;1279;22617;-81
2022/05/18 06:39:39;;;;;;;8.00;2.20;;;;;;;15.21;61.17;100147.80;105755;1277;22611;-79
2022/05/18 06:42:14;;;;;;;8.90;2.40;;;;;;;15.36;61.02;100150.13;105741;1277;22550;-85
2022/05/18 06:45:09;;;;;;;5.80;1.90;;;;;;;15.52;61.17;100155.75;106186;1281;24281;-78
2022/05/18 06:47:37;;;;;;;6.10;2.10;;;;;;;15.73;61.22;100154.54;105616;1278;25359;-79
2022/05/18 06:50:12;;;;;;;7.10;2.10;;;;;;;15.91;61.10;100152.64;106134;1276;22736;-83
2022/05/18 06:53:08;;;;;;;9.20;2.10;;;;;;;16.03;61.05;100152.62;106004;1278;23249;-77
2022/05/18 06:55:37;;;;;;;9.30;1.80;;;;;;;16.13;61.01;100159.90;105797;1278;22526;-83
2022/05/18 06:58:07;;;;;;;8.40;2.10;;;;;;;16.16;60.88;100159.66;106513;1273;24186;-78
2022/05/18 07:01:07;;;;;;;8.10;2.00;;;;;;;16.22;60.92;100166.73;106589;1273;24342;-82
2022/05/18 07:03:41;;;;;;;6.70;2.00;;;;;;;16.34;60.64;100164.15;106105;1273;25227;-78
2022/05/18 07:06:35;;;;;;;;;;;;;;;;;;;;;
2022/05/18 07:09:26;;;;;;;;;;;;;;;;;;;;;
2022/05/18 07:12:07;;;;;;;7.10;2.10;;;;;;;16.53;60.34;100172.24;106287;1273;22538;-81
2022/05/18 07:14:58;;;;;;;8.40;2.00;;;;;;;16.70;60.21;100168.52;106299;1273;24251;-78
2022/05/18 07:17:44;;;;;;;6.90;2.10;;;;;;;16.82;59.97;100171.73;106256;1273;25220;-79
2022/05/18 07:21:04;;;;;;;7.80;2.30;;;;;;;16.97;60.01;100170.53;106258;1273;25521;-78
2022/05/18 07:24:03;;;;;;;10.00;2.00;;;;;;;17.23;59.84;100167.15;106276;1273;25312;-77
2022/05/18 07:30:10;;;;;;;8.40;1.90;;;;;;;17.41;59.26;100169.80;106289;1273;25399;-79
2022/05/18 07:32:43;;;;;;;7.90;1.90;;;;;;;17.44;59.43;100171.71;106240;1273;22676;-84
2022/05/18 07:35:57;;;;;;;6.70;1.80;;;;;;;17.51;59.37;100174.68;106031;1274;22543;-80
2022/05/18 07:39:33;;;;;;;7.70;1.90;;;;;;;17.66;59.44;100178.50;106310;1273;24419;-79
2022/05/18 07:42:02;;;;;;;7.00;2.00;;;;;;;17.79;59.18;100176.67;106068;1273;22565;-83
2022/05/18 07:45:04;;;;;;;6.60;1.90;;;;;;;17.95;59.15;100181.89;106063;1274;22569;-85
2022/05/18 07:47:38;;;;;;;7.70;2.20;;;;;;;18.09;58.96;100177.42;105866;1273;524589;-81
2022/05/18 07:50:13;;;;;;;6.50;1.90;;;;;;;18.23;58.83;100175.64;106215;1274;22614;-83
2022/05/18 07:52:58;;;;;;;6.90;2.20;;;;;;;18.31;58.56;100179.64;106233;1273;24289;-84
2022/05/18 07:55:37;;;;;;;6.30;1.70;;;;;;;18.39;58.66;100177.48;106003;1273;24178;-86
2022/05/18 07:58:11;;;;;;;9.40;2.20;;;;;;;18.49;58.57;100182.02;106177;1273;24248;-80
2022/05/18 08:00:39;;;;;;;7.30;2.00;;;;;;;18.64;58.46;100180.52;106212;1273;23912;-84
2022/05/18 08:03:17;;;;;;;7.70;1.90;;;;;;;18.76;58.54;100178.08;105953;1273;22536;-80
2022/05/18 08:06:05;;;;;;;7.30;1.70;;;;;;;18.89;58.18;100177.07;106233;1273;23951;-78
2022/05/18 08:08:55;;;;;;;7.20;1.80;;;;;;;18.93;58.13;100177.81;106242;1273;25358;-79
2022/05/18 08:15:08;;;;;;;10.10;2.10;;;;;;;19.10;57.86;100181.52;105721;1280;22844;-84
2022/05/18 08:18:11;;;;;;;5.20;1.90;;;;;;;19.31;58.18;100186.73;106003;1273;24407;-87
2022/05/18 08:20:40;;;;;;;7.90;2.10;;;;;;;19.53;57.78;100185.06;106180;1273;22579;-86
2022/05/18 08:23:19;;;;;;;5.20;1.90;;;;;;;19.63;57.78;100188.44;106245;1273;23016;-80
2022/05/18 08:25:58;;;;;;;7.30;1.90;;;;;;;19.66;57.10;100196.32;105901;1273;25399;-79
2022/05/18 08:28:44;;;;;;;8.30;1.50;;;;;;;19.60;56.99;100193.80;106004;1273;24287;-84
2022/05/18 08:31:26;;;;;;;6.30;1.60;;;;;;;19.76;57.07;100192.54;106166;1273;24341;-85
2022/05/18 08:34:09;;;;;;;;;;;;;;;;;;;;;
2022/05/18 08:36:40;;;;;;;9.10;1.80;;;;;;;19.89;56.60;100190.71;106022;1273;22554;-85
2022/05/18 08:39:10;;;;;;;5.60;1.90;;;;;;;19.85;56.63;100186.97;106005;1274;24484;-85
2022/05/18 08:41:46;;;;;;;6.30;2.00;;;;;;;19.90;56.80;100187.58;105946;1273;22680;-84
2022/05/18 08:44:25;;;;;;;8.70;2.10;;;;;;;20.01;56.57;100189.80;106205;1273;24708;-78
2022/05/18 08:47:08;;;;;;;4.90;1.70;;;;;;;20.13;56.56;100189.02;106070;1274;23941;-80
2022/05/18 08:49:44;;;;;;;6.30;1.80;;;;;;;20.27;56.27;100185.89;106117;1273;22657;-83
2022/05/18 08:52:32;;;;;;;8.90;1.60;;;;;;;20.39;56.20;100186.73;106109;1273;22592;-83
2022/05/18 08:55:28;;;;;;;7.30;1.90;;;;;;;20.54;55.97;100187.72;106096;1273;25499;-82
2022/05/18 08:58:10;;;;;;;4.10;1.50;;;;;;;20.54;55.41;100190.21;105958;1275;22553;-85
2022/05/18 09:00:45;;;;;;;7.10;1.50;;;;;;;20.49;55.38;100189.31;106054;1274;25354;-79
2022/05/18 09:03:23;;;;;;;4.90;1.60;;;;;;;20.53;55.32;100190.92;106019;1273;24294;-84
2022/05/18 09:06:12;;;;;;;10.40;2.00;;;;;;;20.60;55.40;100193.30;106076;1274;25220;-78
2022/05/18 09:10:12;;;;;;;5.80;1.30;;;;;;;20.71;54.99;100190.25;105946;1273;24416;-79
2022/05/18 09:11:45;;;;;;;5.00;1.50;;;;;;;20.93;55.07;100191.73;106316;1273;22624;-82
2022/05/18 09:14:20;;;;;;;3.50;1.20;;;;;;;21.09;54.80;100192.83;106011;1275;22849;-78
2022/05/18 09:17:31;;;;;;;5.90;1.50;;;;;;;21.14;54.33;100191.67;106199;1273;24285;-85
2022/05/18 09:20:13;;;;;;;8.20;1.80;;;;;;;21.12;53.96;100192.94;106049;1274;24262;-84
2022/05/18 09:22:59;;;;;;;3.80;1.10;;;;;;;21.17;53.91;100191.20;106309;1273;22823;-82
2022/05/18 09:25:31;;;;;;;3.20;1.00;;;;;;;21.22;53.28;100192.14;106288;1273;25244;-80
2022/05/18 09:28:16;;;;;;;4.60;0.90;;;;;;;21.22;53.19;100191.91;106345;1273;22550;-78
2022/05/18 09:30:54;;;;;;;5.60;1.10;;;;;;;21.26;53.07;100188.30;105997;1273;22851;-78
2022/05/18 09:33:42;;;;;;;6.20;1.00;;;;;;;21.31;52.94;100193.95;106098;1273;24286;-78
2022/05/18 09:36:38;;;;;;;2.20;0.70;;;;;;;21.28;52.62;100193.72;106259;1273;22594;-84
2022/05/18 09:39:14;;;;;;;2.10;0.70;;;;;;;21.37;52.40;100192.69;106068;1274;25338;-80
2022/05/18 09:41:49;;;;;;;2.50;0.70;;;;;;;21.41;52.02;100194.04;105986;1273;24289;-84
2022/05/18 09:44:16;;;;;;;5.90;1.30;;;;;;;21.46;52.03;100193.35;105985;1276;25232;-78
2022/05/18 09:46:44;;;;;;;6.00;1.00;;;;;;;21.47;51.85;100195.86;106261;1273;22557;-77
2022/05/18 09:49:23;;;;;;;5.90;1.40;;;;;;;21.46;51.67;100195.59;106384;1273;24182;-85
2022/05/18 09:51:52;;;;;;;5.00;1.10;;;;;;;21.49;51.74;100196.14;106265;1273;22611;-84
2022/05/18 09:54:29;;;;;;;6.30;1.90;;;;;;;21.58;51.59;100194.36;106301;1273;24402;-85
2022/05/18 09:57:07;;;;;;;5.90;1.90;;;;;;;21.66;51.28;100197.36;106010;1273;24285;-83
2022/05/18 09:59:40;;;;;;;6.30;1.50;;;;;;;21.72;51.29;100197.33;105996;1273;22827;-79
2022/05/18 10:07:52;;;;;;;5.70;1.20;;;;;;;21.90;50.56;100198.21;106131;1273;22770;-82
2022/05/18 10:10:27;;;;;;;3.90;0.90;;;;;;;21.99;50.71;100196.88;106102;1273;24266;-81
2022/05/18 10:12:55;;;;;;;5.90;0.80;;;;;;;22.16;50.69;100191.19;106314;1273;24270;-86
2022/05/18 10:15:39;;;;;;;3.40;0.70;;;;;;;22.28;50.34;100187.26;106080;1274;22535;-86
2022/05/18 10:18:17;;;;;;;2.50;0.80;;;;;;;22.25;49.94;100190.89;106140;1273;22613;-81
2022/05/18 10:21:20;;;;;;;3.90;0.80;;;;;;;22.25;49.85;100190.81;105981;1273;25248;-79
2022/05/18 10:24:25;;;;;;;4.60;1.00;;;;;;;22.17;49.54;100186.72;106288;1273;22675;-81
2022/05/18 10:27:10;;;;;;;3.10;0.80;;;;;;;22.09;49.56;100185.86;105743;1279;24293;-86
2022/05/18 10:29:38;;;;;;;3.90;0.90;;;;;;;21.99;49.00;100181.81;105704;1279;25546;-77
2022/05/18 10:32:44;;;;;;;4.80;0.80;;;;;;;21.94;49.02;100182.39;105717;1279;24439;-80
2022/05/18 10:35:11;;;;;;;5.80;0.90;;;;;;;21.98;48.87;100178.91;105567;1279;22559;-86
2022/05/18 10:37:47;;;;;;;2.60;0.70;;;;;;;21.98;48.66;100181.19;105682;1280;22749;-85
2022/05/18 10:40:19;;;;;;;5.30;0.80;;;;;;;21.96;48.59;100179.10;105623;1281;24263;-84
2022/05/18 10:42:52;;;;;;;4.30;0.80;;;;;;;21.99;48.72;100174.66;105751;1279;22611;-84
2022/05/18 10:45:34;;;;;;;2.80;0.90;;;;;;;22.03;48.75;100174.56;105681;1279;22584;-82
2022/05/18 10:48:13;;;;;;;3.30;1.00;;;;;;;22.02;48.26;100170.71;105835;1279;24483;-79
2022/05/18 10:50:45;;;;;;;3.90;1.00;;;;;;;22.06;48.31;100170.45;105798;1281;24246;-77
2022/05/18 10:53:12;;;;;;;2.60;0.90;;;;;;;22.06;48.10;100171.92;105627;1281;25333;-79
2022/05/18 10:56:12;;;;;;;3.90;0.70;;;;;;;22.16;48.37;100163.84;105552;1281;22544;-85
2022/05/18 10:59:04;;;;;;;4.00;0.70;;;;;;;22.25;47.36;100161.77;105858;1280;22608;-81
2022/05/18 11:01:54;;;;;;;3.60;0.90;;;;;;;22.24;47.82;100160.66;105857;1280;22564;-78
2022/05/18 11:04:33;;;;;;;5.10;1.00;;;;;;;22.37;47.90;100155.30;105826;1273;25348;-80
2022/05/18 11:07:25;;;;;;;3.30;0.90;;;;;;;22.53;47.91;100152.58;106122;1275;25245;-79
2022/05/18 11:09:58;;;;;;;4.10;1.10;;;;;;;22.61;47.62;100152.73;106147;1274;25473;-80
2022/05/18 11:12:34;;;;;;;3.40;1.00;;;;;;;22.70;47.61;100147.11;105955;1276;25237;-78
2022/05/18 11:15:41;;;;;;;4.40;1.00;;;;;;;22.84;47.77;100144.34;106113;1275;22479;-81
2022/05/18 11:18:33;;;;;;;3.10;0.80;;;;;;;22.94;46.92;100139.89;106097;1273;22981;-82
2022/05/18 11:21:45;;;;;;;5.10;1.00;;;;;;;22.90;46.98;100134.98;105883;1273;22658;-82
2022/05/18 11:25:04;;;;;;;3.00;0.60;;;;;;;23.09;47.01;100128.96;106142;1273;25187;-79
2022/05/18 11:28:22;;;;;;;2.50;0.70;;;;;;;23.02;46.11;100124.42;106368;1273;25383;-80
2022/05/18 11:31:31;;;;;;;3.70;0.60;;;;;;;22.89;45.89;100121.52;106313;1273;22545;-81
2022/05/18 11:34:36;;;;;;;2.20;0.60;;;;;;;22.80;45.84;100119.31;105985;1273;24368;-80
2022/05/18 11:37:44;;;;;;;4.50;1.00;;;;;;;22.83;46.13;100116.67;105639;1281;22528;-80
2022/05/18 11:40:53;;;;;;;;;;;;;;;;;;;;;
2022/05/18 11:44:04;;;;;;;3.90;0.70;;;;;;;23.00;45.47;100114.17;105940;1279;24216;-80
2022/05/18 11:47:09;;;;;;;2.90;0.60;;;;;;;23.10;45.80;100109.41;105848;1280;25590;-82
2022/05/18 11:50:16;;;;;;;4.90;0.80;;;;;;;23.10;45.19;100110.88;105774;1280;22633;-78
2022/05/18 11:53:47;;;;;;;;;;;;;;;;;;;;;
2022/05/18 11:56:41;;;;;;;3.10;0.70;;;;;;;22.76;44.51;100105.27;105569;1280;22572;-85
2022/05/18 11:59:52;;;;;;;2.80;0.70;;;;;;;22.82;44.93;100100.63;105647;1280;23242;-83
2022/05/18 12:02:25;;;;;;;4.50;0.70;;;;;;;22.94;44.32;100100.84;105645;1281;22564;-83
2022/05/18 12:05:47;;;;;;;4.80;0.90;;;;;;;22.92;43.96;100096.98;105744;1279;22574;-83
2022/05/18 12:09:20;;;;;;;3.10;0.60;;;;;;;22.91;43.73;100093.27;105874;1280;25489;-79
2022/05/18 12:12:17;;;;;;;4.90;0.70;;;;;;;22.84;43.54;100094.63;105862;1278;22536;-86
2022/05/18 12:15:04;;;;;;;3.00;0.70;;;;;;;22.74;43.72;100089.33;106277;1273;22580;-79
2022/05/18 12:17:58;;;;;;;4.80;0.60;;;;;;;22.73;43.56;100090.21;106140;1273;22639;-78
2022/05/18 12:20:45;;;;;;;3.00;0.90;;;;;;;22.73;43.60;100091.81;106154;1273;27197;-78
2022/05/18 12:23:29;;;;;;;4.50;0.80;;;;;;;22.71;43.35;100094.75;105947;1273;22671;-83
2022/05/18 12:25:58;;;;;;;3.00;0.80;;;;;;;22.69;43.41;100091.85;106208;1277;22538;-79
2022/05/18 12:28:28;;;;;;;4.50;0.90;;;;;;;22.73;43.62;100084.93;106079;1274;25413;-82
2022/05/18 12:30:57;;;;;;;4.40;0.70;;;;;;;22.77;42.99;100081.58;106189;1273;22708;-82
2022/05/18 12:33:42;;;;;;;6.70;1.30;;;;;;;22.63;42.76;100082.10;106181;1273;25517;-81
2022/05/18 12:36:29;;;;;;;7.40;0.90;;;;;;;22.50;42.82;100081.70;106058;1274;22755;-79
2022/05/18 12:39:16;;;;;;;2.10;0.50;;;;;;;22.49;42.71;100078.04;105949;1276;25353;-78
2022/05/18 12:41:46;;;;;;;3.80;0.80;;;;;;;22.50;42.89;100076.95;105964;1274;24265;-78
2022/05/18 12:44:49;;;;;;;2.50;0.80;;;;;;;22.52;42.64;100075.83;105987;1277;22541;-79
2022/05/18 12:47:39;;;;;;;3.70;0.70;;;;;;;22.43;42.41;100076.10;106339;1274;22550;-81
2022/05/18 12:50:17;;;;;;;5.10;0.70;;;;;;;22.32;42.48;100081.11;106359;1274;22696;-77
2022/05/18 12:53:15;;;;;;;4.30;0.60;;;;;;;22.25;42.26;100084.91;106165;1271;24354;-78
2022/05/18 12:56:22;;;;;;;;;;;;;;;;;;;;;
2022/05/18 12:59:00;;;;;;;5.50;1.00;;;;;;;22.10;41.71;100073.94;106395;1271;24052;-84
2022/05/18 13:01:37;;;;;;;2.80;0.80;;;;;;;22.11;41.58;100075.34;106208;1277;22575;-79
2022/05/18 13:04:30;;;;;;;4.90;0.70;;;;;;;22.09;41.56;100076.02;106129;1275;22530;-79
2022/05/18 13:07:27;;;;;;;3.20;0.70;;;;;;;22.07;41.38;100078.21;106228;1275;22535;-83
2022/05/18 13:10:26;;;;;;;2.30;0.60;;;;;;;22.08;41.29;100078.98;106288;1271;25503;-79
2022/05/18 13:13:05;;;;;;;3.00;0.70;;;;;;;22.10;41.39;100073.23;106353;1271;22535;-79
2022/05/18 13:15:56;;;;;;;4.90;0.70;;;;;;;22.13;41.16;100071.59;106243;1274;25560;-80
2022/05/18 13:18:35;;;;;;;2.50;0.70;;;;;;;22.14;40.98;100070.46;106105;1271;24048;-78
2022/05/18 13:21:31;;;;;;;4.10;0.80;;;;;;;22.16;40.95;100072.21;106210;1274;22560;-82
2022/05/18 13:24:13;;;;;;;2.60;0.80;;;;;;;22.15;40.69;100068.93;106436;1271;22616;-84
2022/05/18 13:26:57;;;;;;;4.10;1.20;;;;;;;22.13;40.37;100069.12;106279;1274;22470;-83
2022/05/18 13:29:32;;;;;;;5.20;0.80;;;;;;;22.09;40.26;100064.95;106347;1274;25206;-79
2022/05/18 13:32:09;;;;;;;7.80;1.70;;;;;;;22.15;40.36;100062.71;106960;1271;24249;-76
2022/05/18 13:35:10;;;;;;;2.50;0.70;;;;;;;22.19;40.14;100063.42;106207;1272;22582;-78
2022/05/18 13:38:25;;;;;;;4.40;0.70;;;;;;;22.24;40.16;100059.98;106367;1272;22185;-83
2022/05/18 13:40:59;;;;;;;7.80;0.90;;;;;;;22.28;40.20;100059.73;106210;1271;22832;-85
2022/05/18 13:43:31;;;;;;;4.30;1.00;;;;;;;22.31;39.97;100061.04;106203;1274;24222;-78
2022/05/18 13:46:27;;;;;;;2.90;0.70;;;;;;;22.37;40.16;100055.70;106023;1275;25346;-82
2022/05/18 13:49:05;;;;;;;2.80;0.70;;;;;;;22.40;39.84;100056.46;106210;1274;23357;-78
2022/05/18 13:51:48;;;;;;;2.80;0.70;;;;;;;22.35;39.51;100053.70;106285;1271;23039;-78
2022/05/18 13:54:22;;;;;;;3.70;0.90;;;;;;;22.37;39.46;100057.88;105909;1274;24345;-77
2022/05/18 13:57:01;;;;;;;3.50;0.60;;;;;;;22.39;39.47;100049.79;106043;1274;25352;-79
2022/05/18 14:00:03;;;;;;;;;;;;;;;;;;;;;
2022/05/18 14:02:40;;;;;;;2.30;0.70;;;;;;;22.51;39.05;100045.86;106419;1274;24191;-82
2022/05/18 14:05:33;;;;;;;3.00;0.80;;;;;;;22.54;39.18;100043.16;106377;1274;22619;-82
2022/05/18 14:08:17;;;;;;;9.20;1.70;;;;;;;22.60;38.96;100040.16;106155;1275;22553;-79
2022/05/18 14:10:56;;;;;;;3.00;1.00;;;;;;;22.69;39.27;100039.62;106065;1274;25236;-78
2022/05/18 14:13:27;;;;;;;3.80;0.70;;;;;;;22.81;39.02;100038.86;106188;1277;23159;-79
2022/05/18 14:15:56;;;;;;;5.00;0.80;;;;;;;22.83;38.53;100036.97;105915;1275;22590;-80
2022/05/18 14:18:36;;;;;;;3.60;0.80;;;;;;;22.76;38.44;100034.98;105971;1274;25337;-77
2022/05/18 14:21:09;;;;;;;2.50;0.60;;;;;;;22.70;38.55;100029.74;105885;1274;22644;-81
2022/05/18 14:24:07;;;;;;;3.40;0.80;;;;;;;22.67;38.19;100026.34;105933;1274;22722;-80
2022/05/18 14:26:53;;;;;;;2.10;0.60;;;;;;;22.67;38.38;100027.63;106077;1277;22538;-81
2022/05/18 14:29:36;;;;;;;2.10;0.70;;;;;;;22.73;38.08;100023.91;105921;1274;24244;-83
2022/05/18 14:32:10;;;;;;;2.10;0.40;;;;;;;22.76;38.08;100023.05;106280;1274;22693;-85
2022/05/18 14:34:47;;;;;;;3.80;0.80;;;;;;;22.80;37.74;100021.17;106309;1274;22645;-78
2022/05/18 14:37:35;;;;;;;3.90;0.80;;;;;;;22.87;37.88;100018.15;105937;1274;22484;-80
2022/05/18 14:40:17;;;;;;;3.90;0.70;;;;;;;22.90;37.75;100013.70;105920;1274;24290;-84
2022/05/18 14:42:48;;;;;;;2.70;0.60;;;;;;;22.95;37.70;100013.14;105974;1275;24264;-80
2022/05/18 14:45:22;;;;;;;2.70;0.60;;;;;;;23.04;37.53;100012.34;106044;1275;24642;-80
2022/05/18 14:47:58;;;;;;;2.30;0.50;;;;;;;23.08;37.19;100012.10;105973;1274;23160;-79
2022/05/18 14:50:42;;;;;;;2.70;0.70;;;;;;;23.10;37.17;100009.11;106101;1274;23329;-78
2022/05/18 14:53:12;;;;;;;4.30;0.80;;;;;;;23.17;37.24;100005.68;105939;1274;24230;-83